Terminal Aerodrome Forecast
Issued by NWS

Home | Current Version | Previous Version | Text Only | Print | Product List | Glossary On
Versions: 1 2 3 4 5 6 7 8 9 10 11 12 13 14 15 16 17 18
418
FTPA31 PHFO 250530
TAFHNY
TAF
PHNY 250530Z 2506/2606 VRB05KT P6SM FEW020 SCT040
     FM252100 21008KT P6SM BKN025
     FM260500 VRB05KT P6SM FEW020 SCT040=

USA.gov is the U.S. government's official web portal to all federal, state and local government web resources and services.